Impacts TAF Board
For situational awareness. Not to be used for flight planning purposes.
IDs:

KBOS - Boston/Logan Intl, MA, US

Issued at 1732 UTC 18 Jun 2019
Updated at 1838 UTC 18 Jun 2019
Potential Impact None Slight Moderate High
Time1818Z 18/19Z 18/20Z 18/21Z 18/22Z 18/23Z 19/00Z 19/01Z 19/02Z 19/03Z 19/04Z 19/05Z 19/06Z 19/07Z>>
Type OBS PRVL PRVL PRVL PRVL PRVL PRVL PRVL PRVL PRVL PRVL PRVL PRVL PRVL
VIS 0.5 6 5 5 5 4 4 4 4 4 4 4 4 3
CIG 3 25 15 15 15 10 10 10 10 10 10 10 10 5
Cover OVC OVC OVC OVC OVC OVC OVC OVC OVC OVC OVC OVC OVC OVC
FltCat LIFR MVFR MVFR MVFR MVFR MVFR MVFR MVFR MVFR MVFR MVFR MVFR MVFR IFR
WX -RA BR -SHRA BR -RA -RA -RA BR BR BR BR BR BR BR BR BR
WDir 60 80 100 100 100 130 130 130 130 130 130 130 130 100
WSpd 5 6 6 6 6 5 5 5 5 5 5 5 5 4
WGst -- -- -- -- -- -- -- -- -- -- -- -- -- --
Raw TAF
KBOS 181732Z 1818/1924 08006KT 6SM -SHRA BR SCT005 OVC025
  FM182000 10006KT 5SM -RA OVC015
  FM182300 13005KT 4SM BR OVC010
  FM190700 10004KT 3SM BR OVC005
  FM191500 10005KT P6SM BKN008
  FM191700 10007KT P6SM BKN025


Raw METAR
KBOS 181818Z 06005KT 1/2SM R04R/P6000FT -RA BR BKN003 OVC012 18/17 A2996 RMK AO2 SFC VIS 2 1/2 RAB1753 P0000 T01830167
KBOS 181749Z 07006KT 2SM BR BKN004 OVC012 19/17 A2996 RMK AO2 SFC VIS 4 SLP144 T01890167 10211 20183 58006
KBOS 181748Z 07006KT 2SM BR BKN004 OVC012 19/16 A2996 RMK AO2 SFC VIS 4
KBOS 181717Z 08006KT 5SM BR BKN005 OVC029 19/17 A2997 RMK AO2 T01940167
KBOS 181654Z 08007KT 4SM BR FEW007 BKN022 OVC028 19/17 A2997 RMK AO2 SLP148 T01890167
KBOS 181636Z 07007KT 7SM BKN007 OVC024 18/16 A2997 RMK AO2 T01830156
KBOS 181627Z 06008KT 7SM SCT007 BKN023 OVC160 19/16 A2997 RMK AO2 CIG 006 E T01890156
KBOS 181554Z 08008KT 7SM BKN021 OVC160 19/16 A2997 RMK AO2 SLP148 T01940156

METAR Board
Radar Display
Forecast Discussion
For situational awareness. Not to be used for flight planning purposes.